Time;durP1;ratioP1;P1;durP2;ratioP2;P2;SDS_P1;SDS_P2;PMS_P1;PMS_P2;Temp;Humidity;BMP_temperature;BMP_pressure;BME280_temperature;BME280_humidity;BME280_pressure;Samples;Min_cycle;Max_cycle;Signal;HPM_P1;HPM_P2
2022/05/12 00:01:18;;;;;;;10.40;1.48;;;11.20;99.90;;;;;;4976278;28;81065;-69
2022/05/12 00:03:44;;;;;;;9.27;1.40;;;11.20;99.90;;;;;;4915707;28;214054;-69
2022/05/12 00:06:10;;;;;;;10.50;1.73;;;11.10;99.90;;;;;;4960525;28;149158;-69
2022/05/12 00:08:36;;;;;;;8.98;1.40;;;11.10;99.90;;;;;;4914784;28;213331;-69
2022/05/12 00:11:04;;;;;;;9.98;1.40;;;11.00;99.90;;;;;;4976661;28;50790;-69
2022/05/12 00:13:30;;;;;;;9.10;1.50;;;11.00;99.90;;;;;;4940979;28;208334;-69
2022/05/12 00:15:58;;;;;;;9.02;1.50;;;11.00;99.90;;;;;;4974029;28;130292;-69
2022/05/12 00:18:25;;;;;;;8.07;1.42;;;11.00;99.90;;;;;;4910875;28;211435;-69
2022/05/12 00:20:52;;;;;;;7.55;1.50;;;10.90;99.90;;;;;;4974310;28;160482;-69
2022/05/12 00:23:24;;;;;;;10.95;1.90;;;10.80;99.90;;;;;;4961710;28;213446;-68
2022/05/12 00:25:50;;;;;;;8.65;1.42;;;10.80;99.90;;;;;;4930997;28;247946;-69
2022/05/12 00:28:18;;;;;;;7.68;1.40;;;10.80;99.90;;;;;;4957824;28;20058;-69
2022/05/12 00:30:47;;;;;;;6.20;1.30;;;10.70;99.90;;;;;;4918139;28;206918;-68
2022/05/12 00:33:14;;;;;;;8.73;1.60;;;10.70;99.90;;;;;;4955941;28;20055;-69
2022/05/12 00:35:43;;;;;;;7.35;1.40;;;10.70;99.90;;;;;;4914417;28;261364;-68
2022/05/12 00:38:10;;;;;;;9.35;1.42;;;10.70;99.90;;;;;;4957808;28;20051;-69
2022/05/12 00:40:41;;;;;;;9.57;1.20;;;10.60;99.90;;;;;;4926252;28;210142;-69
2022/05/12 00:43:29;;;;;;;9.38;2.10;;;10.60;99.90;;;;;;4959465;28;20417;-69
2022/05/12 00:45:55;;;;;;;7.85;1.42;;;10.50;99.90;;;;;;4908977;28;204358;-69
2022/05/12 00:48:21;;;;;;;7.35;1.10;;;10.50;99.90;;;;;;4931949;28;231460;-67
2022/05/12 00:50:48;;;;;;;8.20;1.30;;;10.50;99.90;;;;;;4962618;28;172837;-68
2022/05/12 00:53:15;;;;;;;7.25;1.50;;;10.50;99.90;;;;;;4962193;28;20043;-69
2022/05/12 00:55:44;;;;;;;9.63;1.60;;;10.40;99.90;;;;;;4937289;28;210030;-69
2022/05/12 00:58:14;;;;;;;11.35;1.70;;;10.40;99.90;;;;;;4959863;28;20512;-69
2022/05/12 01:00:40;;;;;;;8.73;1.40;;;10.40;99.90;;;;;;4932082;28;214637;-69
2022/05/12 01:03:13;;;;;;;8.77;1.63;;;10.40;99.90;;;;;;4958500;28;20047;-69
2022/05/12 01:05:40;;;;;;;13.65;1.85;;;10.30;99.90;;;;;;4912225;28;279660;-69
2022/05/12 01:08:13;;;;;;;8.57;1.50;;;10.20;99.90;;;;;;4960066;28;20058;-69
2022/05/12 01:10:41;;;;;;;6.57;1.58;;;10.20;99.90;;;;;;4934091;28;213856;-69
2022/05/12 01:13:07;;;;;;;9.68;1.55;;;10.20;99.90;;;;;;4959069;28;20038;-70
2022/05/12 01:15:33;;;;;;;10.25;1.65;;;10.20;99.90;;;;;;4904083;28;207157;-69
2022/05/12 01:18:17;;;;;;;11.98;1.85;;;10.10;99.90;;;;;;4957813;28;20042;-69
2022/05/12 01:20:45;;;;;;;9.88;1.58;;;10.10;99.90;;;;;;4913535;28;243664;-70
2022/05/12 01:23:24;;;;;;;12.45;1.95;;;10.00;99.90;;;;;;4957320;28;20397;-69
2022/05/12 01:25:54;;;;;;;9.23;1.70;;;10.00;99.90;;;;;;4941169;28;170684;-69
2022/05/12 01:28:20;;;;;;;7.85;1.27;;;10.00;99.90;;;;;;4931929;28;210400;-66
2022/05/12 01:30:47;;;;;;;7.32;1.45;;;9.90;99.90;;;;;;4924972;28;206882;-69
2022/05/12 01:33:13;;;;;;;9.73;1.70;;;9.90;99.90;;;;;;4957348;28;20086;-69
2022/05/12 01:35:39;;;;;;;7.35;1.70;;;9.90;99.90;;;;;;4934595;28;219454;-69
2022/05/12 01:38:05;;;;;;;8.80;1.60;;;9.90;99.90;;;;;;4957952;28;20516;-69
2022/05/12 01:40:31;;;;;;;7.80;1.60;;;9.80;99.90;;;;;;4932625;28;210686;-69
2022/05/12 01:42:57;;;;;;;9.13;1.80;;;9.80;99.90;;;;;;4971563;28;20059;-69
2022/05/12 01:45:24;;;;;;;10.90;1.85;;;9.80;99.90;;;;;;4925627;28;208872;-69
2022/05/12 01:47:51;;;;;;;9.55;1.92;;;9.80;99.90;;;;;;4961666;28;20061;-69
2022/05/12 01:50:18;;;;;;;8.90;2.15;;;9.70;99.90;;;;;;4927808;28;253027;-69
2022/05/12 01:52:45;;;;;;;9.43;1.80;;;9.70;99.90;;;;;;4964085;28;20061;-69
2022/05/12 01:55:13;;;;;;;8.10;1.80;;;9.70;99.90;;;;;;4925104;28;217231;-69
2022/05/12 01:57:43;;;;;;;8.23;1.70;;;9.70;99.90;;;;;;4969963;28;20039;-69
2022/05/12 02:00:12;;;;;;;8.63;2.08;;;9.70;99.90;;;;;;4925199;28;218525;-69
2022/05/12 02:02:39;;;;;;;7.50;1.80;;;9.70;99.90;;;;;;4955599;28;20055;-69
2022/05/12 02:05:09;;;;;;;12.32;2.22;;;9.60;99.90;;;;;;4916244;28;206887;-69
2022/05/12 02:07:41;;;;;;;8.57;2.10;;;9.60;99.90;;;;;;4940711;28;20063;-69
2022/05/12 02:10:09;;;;;;;9.90;1.90;;;9.60;99.90;;;;;;4919252;28;238363;-69
2022/05/12 02:12:35;;;;;;;10.18;2.05;;;9.70;99.90;;;;;;4956896;28;20054;-69
2022/05/12 02:15:03;;;;;;;8.90;1.95;;;9.60;99.90;;;;;;4928345;28;125622;-69
2022/05/12 02:17:29;;;;;;;12.63;2.55;;;9.60;99.90;;;;;;4968028;28;20050;-69
2022/05/12 02:19:55;;;;;;;10.35;2.22;;;9.60;99.90;;;;;;4920388;28;206236;-69
2022/05/12 02:22:21;;;;;;;11.05;2.17;;;9.60;99.90;;;;;;4955881;28;20069;-69
2022/05/12 02:24:47;;;;;;;10.85;2.53;;;9.60;99.90;;;;;;4923759;28;213731;-69
2022/05/12 02:27:13;;;;;;;10.98;2.70;;;9.60;99.90;;;;;;4978197;28;20054;-69
2022/05/12 02:29:39;;;;;;;9.90;2.50;;;9.50;99.90;;;;;;4926909;28;211687;-69
2022/05/12 02:32:06;;;;;;;9.43;2.45;;;9.60;99.90;;;;;;4959181;28;20054;-69
2022/05/12 02:34:32;;;;;;;9.88;2.50;;;9.60;99.90;;;;;;4916124;28;213657;-69
2022/05/12 02:37:01;;;;;;;12.35;2.65;;;9.50;99.90;;;;;;4974584;28;20051;-69
2022/05/12 02:39:35;;;;;;;9.73;2.50;;;9.50;99.90;;;;;;4907082;28;247079;-69
2022/05/12 02:42:03;;;;;;;13.25;2.67;;;9.50;99.90;;;;;;4977616;28;20034;-69
2022/05/12 02:44:29;;;;;;;9.80;2.70;;;9.40;99.90;;;;;;4917530;28;256408;-69
2022/05/12 02:46:55;;;;;;;9.75;2.47;;;9.40;99.90;;;;;;4973226;28;20039;-69
2022/05/12 02:49:21;;;;;;;10.05;2.67;;;9.40;99.90;;;;;;4931226;28;143966;-69
2022/05/12 02:51:48;;;;;;;9.20;2.10;;;9.40;99.90;;;;;;4966784;28;20046;-69
2022/05/12 02:54:16;;;;;;;10.00;2.60;;;9.40;99.90;;;;;;4922289;28;214746;-69
2022/05/12 02:56:42;;;;;;;14.98;2.78;;;9.30;99.90;;;;;;4988544;28;20046;-69
2022/05/12 02:59:10;;;;;;;9.55;2.58;;;9.30;99.90;;;;;;4928226;28;229241;-69
2022/05/12 03:01:36;;;;;;;13.52;2.63;;;9.30;99.90;;;;;;4987904;28;20150;-69
2022/05/12 03:04:03;;;;;;;11.43;2.58;;;9.30;99.90;;;;;;4916216;28;205128;-69
2022/05/12 03:06:29;;;;;;;9.55;2.40;;;9.30;99.90;;;;;;4946513;28;20059;-69
2022/05/12 03:08:56;;;;;;;12.55;2.70;;;9.30;99.90;;;;;;4923391;28;209393;-69
2022/05/12 03:11:22;;;;;;;8.18;2.40;;;9.30;99.90;;;;;;4982248;28;20047;-68
2022/05/12 03:13:49;;;;;;;11.18;2.70;;;9.30;99.90;;;;;;4947051;28;133621;-69
2022/05/12 03:16:19;;;;;;;10.45;2.50;;;9.20;99.90;;;;;;4957969;28;20094;-69
2022/05/12 03:18:49;;;;;;;9.77;2.58;;;9.20;99.90;;;;;;4944062;28;207118;-69
2022/05/12 03:21:16;;;;;;;11.80;2.60;;;9.20;99.90;;;;;;4960838;28;254809;-69
2022/05/12 03:23:43;;;;;;;12.18;2.95;;;9.20;99.90;;;;;;4951054;28;207247;-69
2022/05/12 03:26:10;;;;;;;10.50;2.70;;;9.20;99.90;;;;;;4977929;28;192012;-69
2022/05/12 03:28:37;;;;;;;11.77;2.80;;;9.20;99.90;;;;;;4959134;28;212108;-69
2022/05/12 03:31:05;;;;;;;10.80;2.80;;;9.20;99.90;;;;;;4976662;28;188731;-69
2022/05/12 03:33:32;;;;;;;14.38;2.85;;;9.10;99.90;;;;;;4934968;28;216147;-69
2022/05/12 03:35:58;;;;;;;10.27;3.20;;;9.20;99.90;;;;;;4981639;28;198078;-69
2022/05/12 03:38:25;;;;;;;10.98;3.00;;;9.10;99.90;;;;;;4922857;28;212926;-69
2022/05/12 03:40:52;;;;;;;14.43;2.78;;;9.10;99.90;;;;;;4979387;28;230920;-69
2022/05/12 03:46:05;;;;;;;15.20;3.10;;;9.10;99.90;;;;;;4944316;28;104291;-69
2022/05/12 03:48:31;;;;;;;12.43;3.40;;;9.10;99.90;;;;;;4946777;28;215738;-69
2022/05/12 03:50:58;;;;;;;12.02;3.42;;;9.10;99.90;;;;;;4981906;28;67263;-69
2022/05/12 03:53:27;;;;;;;11.98;3.20;;;9.10;99.90;;;;;;4915923;28;216760;-68
2022/05/12 03:55:53;;;;;;;17.90;3.20;;;9.10;99.90;;;;;;4981132;28;97531;-69
2022/05/12 03:58:19;;;;;;;12.30;3.47;;;9.10;99.90;;;;;;4960098;28;213338;-68
2022/05/12 04:00:48;;;;;;;14.50;3.90;;;9.10;99.90;;;;;;4943803;28;272427;-69
2022/05/12 04:03:14;;;;;;;14.65;3.30;;;9.10;99.90;;;;;;4967434;28;21639;-69
2022/05/12 04:05:40;;;;;;;17.08;3.60;;;9.10;99.90;;;;;;4915610;28;162722;-69
2022/05/12 04:08:07;;;;;;;13.40;3.75;;;9.10;99.90;;;;;;4969502;28;20057;-69
2022/05/12 04:10:33;;;;;;;11.60;3.28;;;9.10;99.90;;;;;;4924707;28;209432;-69
2022/05/12 04:12:59;;;;;;;15.68;3.95;;;9.10;99.90;;;;;;4966493;28;20046;-69
2022/05/12 04:15:25;;;;;;;14.65;4.00;;;9.20;99.90;;;;;;4930379;28;220494;-69
2022/05/12 04:17:57;;;;;;;15.52;4.38;;;9.20;99.90;;;;;;4960403;28;20526;-69
2022/05/12 04:20:25;;;;;;;15.23;3.50;;;9.30;99.90;;;;;;4935792;28;206792;-69
2022/05/12 04:22:51;;;;;;;16.98;4.10;;;9.30;99.90;;;;;;4957359;28;20066;-69
2022/05/12 04:25:18;;;;;;;12.85;4.00;;;9.30;99.90;;;;;;4939610;28;210041;-69
2022/05/12 04:27:45;;;;;;;14.32;3.85;;;9.40;99.90;;;;;;4970432;28;20046;-69
2022/05/12 04:30:13;;;;;;;16.02;4.13;;;9.40;99.90;;;;;;4925989;28;216312;-69
2022/05/12 04:32:40;;;;;;;20.17;4.35;;;9.40;99.90;;;;;;4966299;28;20038;-69
2022/05/12 04:35:11;;;;;;;14.05;4.20;;;9.50;99.90;;;;;;4932063;28;212378;-69
2022/05/12 04:37:40;;;;;;;10.48;3.25;;;9.50;99.90;;;;;;4969321;28;20625;-69
2022/05/12 04:40:08;;;;;;;14.23;3.85;;;9.60;99.90;;;;;;4939517;28;215448;-69
2022/05/12 04:42:34;;;;;;;13.80;4.10;;;9.60;99.90;;;;;;4976156;28;20035;-69
2022/05/12 04:45:00;;;;;;;17.75;4.40;;;9.70;99.90;;;;;;4933038;28;212578;-69
2022/05/12 04:47:26;;;;;;;20.33;4.60;;;9.70;99.90;;;;;;4978090;28;20050;-69
2022/05/12 04:49:53;;;;;;;16.10;5.07;;;9.80;99.90;;;;;;4918536;28;212692;-69
2022/05/12 04:52:19;;;;;;;14.82;4.63;;;9.90;99.90;;;;;;4973168;28;20050;-69
2022/05/12 04:54:45;;;;;;;16.15;4.80;;;10.00;99.90;;;;;;4919861;28;216145;-69
2022/05/12 04:57:11;;;;;;;17.88;4.90;;;10.00;99.90;;;;;;4975858;28;20055;-69
2022/05/12 04:59:37;;;;;;;17.80;4.97;;;10.10;99.90;;;;;;4934782;28;216289;-69
2022/05/12 05:02:03;;;;;;;15.27;5.13;;;10.10;99.90;;;;;;4966147;28;20050;-69
2022/05/12 05:04:29;;;;;;;13.93;5.55;;;10.20;99.90;;;;;;4924252;28;206562;-69
2022/05/12 05:06:56;;;;;;;18.95;5.57;;;10.30;99.90;;;;;;4941893;28;20051;-69
2022/05/12 05:09:22;;;;;;;14.90;4.70;;;10.40;99.90;;;;;;4907789;28;220478;-69
2022/05/12 05:11:49;;;;;;;19.20;5.93;;;10.40;99.90;;;;;;4977239;28;20055;-69
2022/05/12 05:14:15;;;;;;;16.63;5.45;;;10.50;99.90;;;;;;4902422;28;252894;-69
2022/05/12 05:16:41;;;;;;;16.63;5.68;;;10.60;99.90;;;;;;4982192;28;20345;-69
2022/05/12 05:19:07;;;;;;;18.48;6.00;;;10.70;99.90;;;;;;4932544;28;191869;-69
2022/05/12 05:21:33;;;;;;;16.80;5.80;;;10.80;99.90;;;;;;4974594;28;20067;-69
2022/05/12 05:23:59;;;;;;;17.75;6.80;;;10.90;99.90;;;;;;4918255;28;216885;-69
2022/05/12 05:26:25;;;;;;;20.00;6.03;;;11.00;99.90;;;;;;4968668;28;20062;-69
2022/05/12 05:28:51;;;;;;;18.52;6.57;;;11.10;99.90;;;;;;4919173;28;213010;-69
2022/05/12 05:31:18;;;;;;;16.38;6.38;;;11.10;99.90;;;;;;4972742;28;35158;-69
2022/05/12 05:33:44;;;;;;;18.20;6.65;;;11.20;99.90;;;;;;4950542;28;201560;-69
2022/05/12 05:36:10;;;;;;;18.83;5.57;;;11.30;99.90;;;;;;4970356;28;97215;-69
2022/05/12 05:38:36;;;;;;;18.53;6.17;;;11.30;99.90;;;;;;4914924;28;216289;-69
2022/05/12 05:41:02;;;;;;;17.90;6.45;;;11.40;99.90;;;;;;4956096;28;281307;-69
2022/05/12 05:43:28;;;;;;;18.60;5.83;;;11.50;99.90;;;;;;4918945;28;210285;-69
2022/05/12 05:45:54;;;;;;;18.05;6.47;;;11.60;99.90;;;;;;4977329;28;134153;-69
2022/05/12 05:48:21;;;;;;;14.85;5.70;;;11.60;99.90;;;;;;4931807;28;212429;-69
2022/05/12 05:53:35;;;;;;;15.88;5.10;;;11.80;99.90;;;;;;4909419;28;212490;-69
2022/05/12 05:56:04;;;;;;;16.15;5.57;;;12.10;99.90;;;;;;4975194;28;74478;-71
2022/05/12 05:58:31;;;;;;;13.68;4.90;;;12.30;99.90;;;;;;4946154;28;210295;-70
2022/05/12 06:00:57;;;;;;;14.02;5.22;;;12.20;99.90;;;;;;4976519;28;20637;-70
2022/05/12 06:03:24;;;;;;;15.40;5.10;;;12.60;99.90;;;;;;4912986;28;213109;-69
2022/05/12 06:05:50;;;;;;;15.25;4.57;;;12.80;99.90;;;;;;4952356;28;180711;-71
2022/05/12 06:08:20;;;;;;;15.30;4.82;;;12.90;99.90;;;;;;4953650;28;20066;-71
2022/05/12 06:10:47;;;;;;;12.95;4.53;;;13.20;99.90;;;;;;4930274;28;206409;-71
2022/05/12 06:13:14;;;;;;;12.88;4.32;;;13.30;99.90;;;;;;4970872;28;20051;-71
2022/05/12 06:15:40;;;;;;;14.45;4.40;;;13.50;99.90;;;;;;4938438;28;206415;-72
2022/05/12 06:18:08;;;;;;;12.27;4.05;;;13.70;99.90;;;;;;4969511;28;20061;-71
2022/05/12 06:20:34;;;;;;;14.55;4.03;;;13.90;99.90;;;;;;4920304;28;206191;-71
2022/05/12 06:23:00;;;;;;;14.07;4.80;;;14.00;99.90;;;;;;4969435;28;20419;-71
2022/05/12 06:25:26;;;;;;;12.10;3.90;;;14.10;99.90;;;;;;4937508;28;215045;-72
2022/05/12 06:27:52;;;;;;;11.70;4.25;;;14.10;99.90;;;;;;4960070;28;20066;-71
2022/05/12 06:30:19;;;;;;;11.90;4.00;;;14.20;99.90;;;;;;4938296;28;233760;-71
2022/05/12 06:32:46;;;;;;;14.05;4.07;;;14.30;99.90;;;;;;4974741;28;20046;-71
2022/05/12 06:35:16;;;;;;;16.02;3.78;;;14.50;99.90;;;;;;4938735;28;251421;-72
2022/05/12 06:37:43;;;;;;;14.15;3.78;;;14.50;99.90;;;;;;4970768;28;20054;-72
2022/05/12 06:40:09;;;;;;;13.57;4.20;;;14.60;99.90;;;;;;4942160;28;209800;-71
2022/05/12 06:42:36;;;;;;;13.25;3.92;;;14.70;99.90;;;;;;4977041;28;20046;-70
2022/05/12 06:45:03;;;;;;;11.50;3.40;;;14.80;99.90;;;;;;4953509;28;150199;-71
2022/05/12 06:47:31;;;;;;;11.88;3.40;;;15.00;99.90;;;;;;4965271;28;20050;-71
2022/05/12 06:50:01;;;;;;;11.50;3.45;;;15.10;99.90;;;;;;4928776;28;209632;-71
2022/05/12 06:52:28;;;;;;;12.85;4.00;;;15.20;99.90;;;;;;4974602;28;20059;-70
2022/05/12 06:54:54;;;;;;;12.35;2.90;;;15.30;99.90;;;;;;4920716;28;213565;-70
2022/05/12 06:57:22;;;;;;;12.15;3.20;;;15.30;99.90;;;;;;4980625;28;20038;-70
2022/05/12 06:59:49;;;;;;;14.20;3.22;;;15.50;99.90;;;;;;4935542;28;210564;-73
2022/05/12 07:02:15;;;;;;;12.38;3.17;;;15.60;99.90;;;;;;4983165;28;20452;-70
2022/05/12 07:04:45;;;;;;;13.95;3.10;;;15.70;99.90;;;;;;4912483;28;218151;-71
2022/05/12 07:07:13;;;;;;;12.48;3.30;;;15.80;99.90;;;;;;4963011;28;20121;-70
2022/05/12 07:09:39;;;;;;;11.10;2.75;;;15.90;99.90;;;;;;4929251;28;222547;-70
2022/05/12 07:12:06;;;;;;;11.05;2.88;;;16.00;99.90;;;;;;4977425;28;20046;-70
2022/05/12 07:14:32;;;;;;;11.48;2.42;;;16.20;99.90;;;;;;4928753;28;212067;-70
2022/05/12 07:16:58;;;;;;;9.68;2.45;;;16.30;99.90;;;;;;4986824;28;20047;-70
2022/05/12 07:19:25;;;;;;;11.63;2.55;;;16.50;99.90;;;;;;4924811;28;212770;-70
2022/05/12 07:27:20;;;;;;;11.98;2.75;;;16.90;99.90;;;;;;4972708;28;20054;-70
2022/05/12 07:29:46;;;;;;;11.02;2.35;;;16.90;99.90;;;;;;4921401;28;254314;-70
2022/05/12 07:32:13;;;;;;;11.57;2.45;;;17.00;99.90;;;;;;4983118;28;20043;-70
2022/05/12 07:34:40;;;;;;;11.20;2.80;;;16.90;99.90;;;;;;4941780;28;210571;-69
2022/05/12 07:37:06;;;;;;;12.25;2.80;;;17.00;99.90;;;;;;4992474;28;20495;-71
2022/05/12 07:39:33;;;;;;;10.55;2.20;;;17.00;99.90;;;;;;4927925;28;211824;-70
2022/05/12 07:42:01;;;;;;;12.35;2.78;;;17.30;99.90;;;;;;4972670;28;20054;-69
2022/05/12 07:44:34;;;;;;;10.77;2.63;;;17.10;99.90;;;;;;4934061;28;210763;-69
2022/05/12 07:47:03;;;;;;;11.40;2.40;;;17.30;99.90;;;;;;4978348;28;20057;-69
2022/05/12 07:49:32;;;;;;;12.32;2.70;;;17.50;99.90;;;;;;4926927;28;210647;-69
2022/05/12 07:51:59;;;;;;;11.82;2.47;;;17.80;99.90;;;;;;4982440;28;20419;-69
2022/05/12 07:54:26;;;;;;;11.32;2.22;;;18.10;99.90;;;;;;4924003;28;215208;-69
2022/05/12 07:56:52;;;;;;;9.65;2.25;;;18.30;99.90;;;;;;4980606;28;20068;-69
2022/05/12 07:59:19;;;;;;;11.32;2.20;;;18.40;99.90;;;;;;4924818;28;210419;-70
2022/05/12 08:01:45;;;;;;;9.75;1.70;;;18.50;99.90;;;;;;4997137;28;20058;-69
2022/05/12 08:04:12;;;;;;;9.82;1.80;;;18.50;99.90;;;;;;4914801;28;214641;-69
2022/05/12 08:06:40;;;;;;;11.25;1.80;;;18.50;99.90;;;;;;4970009;28;20066;-70
2022/05/12 08:09:07;;;;;;;10.00;1.83;;;18.50;99.90;;;;;;4919957;28;223291;-70
2022/05/12 08:11:33;;;;;;;12.57;1.88;;;18.60;99.90;;;;;;4994690;28;20055;-69
2022/05/12 08:13:59;;;;;;;12.60;2.05;;;18.60;99.50;;;;;;4925737;28;213225;-70
2022/05/12 08:16:26;;;;;;;11.85;1.80;;;18.70;99.10;;;;;;4998908;28;20070;-69
2022/05/12 08:18:53;;;;;;;9.07;1.85;;;18.70;98.20;;;;;;4938808;28;215204;-70
2022/05/12 08:21:23;;;;;;;12.65;1.98;;;18.70;98.10;;;;;;4967539;28;20055;-70
2022/05/12 08:23:51;;;;;;;9.43;1.42;;;18.70;97.00;;;;;;4941180;28;212525;-69
2022/05/12 08:26:17;;;;;;;10.95;1.85;;;18.70;97.00;;;;;;4972787;28;20391;-70
2022/05/12 08:28:44;;;;;;;8.93;1.73;;;19.00;97.40;;;;;;4927943;28;213802;-69
2022/05/12 08:31:10;;;;;;;10.15;1.70;;;19.30;96.10;;;;;;4942171;28;213294;-70
2022/05/12 08:33:38;;;;;;;10.23;1.77;;;19.50;96.80;;;;;;4963354;28;210403;-69
2022/05/12 08:36:05;;;;;;;9.75;1.80;;;19.90;94.90;;;;;;4987584;28;179836;-69
2022/05/12 08:38:34;;;;;;;9.73;1.60;;;19.60;94.00;;;;;;4929329;28;210942;-69
2022/05/12 08:41:21;;;;;;;11.05;1.73;;;19.20;93.90;;;;;;4989868;28;94433;-69
2022/05/12 08:44:08;;;;;;;12.32;1.88;;;18.80;94.20;;;;;;4942088;28;209787;-66
2022/05/12 08:46:43;;;;;;;12.02;1.73;;;19.10;94.20;;;;;;4942588;28;20050;-67
2022/05/12 08:49:45;;;;;;;10.15;1.63;;;19.30;94.10;;;;;;4944834;28;212677;-68
2022/05/12 08:52:36;;;;;;;9.15;1.65;;;19.10;93.90;;;;;;4985469;28;20395;-67
2022/05/12 08:55:26;;;;;;;10.32;1.70;;;18.80;93.60;;;;;;4934121;28;212376;-67
2022/05/12 08:58:30;;;;;;;9.32;1.52;;;19.10;93.90;;;;;;4975851;28;20050;-67
2022/05/12 09:01:36;;;;;;;12.35;1.63;;;19.00;93.90;;;;;;4928059;28;211871;-66
2022/05/12 09:04:08;;;;;;;9.77;1.60;;;19.00;93.50;;;;;;4912838;28;212776;-67
2022/05/12 09:06:42;;;;;;;7.20;1.50;;;19.50;94.50;;;;;;4992887;28;20055;-67
2022/05/12 09:09:18;;;;;;;10.13;1.60;;;20.10;93.40;;;;;;4915202;28;212817;-66
2022/05/12 09:11:54;;;;;;;11.02;1.70;;;20.50;91.80;;;;;;4989404;28;20058;-67
2022/05/12 09:14:35;;;;;;;8.63;1.63;;;20.10;91.80;;;;;;4920509;28;150206;-67
2022/05/12 09:17:02;;;;;;;11.13;1.85;;;20.10;90.50;;;;;;4983552;28;20069;-67
2022/05/12 09:19:29;;;;;;;8.27;1.50;;;20.40;89.20;;;;;;4927123;28;217791;-67
2022/05/12 09:21:56;;;;;;;11.90;1.90;;;20.10;89.10;;;;;;4985458;28;20093;-66
2022/05/12 09:24:22;;;;;;;10.75;2.17;;;20.10;90.60;;;;;;4921603;28;212396;-67
2022/05/12 09:26:52;;;;;;;11.55;1.70;;;19.90;91.10;;;;;;4986780;28;20198;-67
2022/05/12 09:29:27;;;;;;;10.32;2.10;;;19.60;91.00;;;;;;4952749;28;170779;-66
2022/05/12 09:32:13;;;;;;;9.95;1.75;;;19.00;91.30;;;;;;4989284;28;20062;-67
2022/05/12 09:34:43;;;;;;;9.90;1.60;;;18.90;93.80;;;;;;4927046;28;212272;-66
2022/05/12 09:37:16;;;;;;;10.90;2.00;;;19.50;94.70;;;;;;4972897;28;20046;-67
2022/05/12 09:39:47;;;;;;;10.30;1.50;;;20.10;92.00;;;;;;4919827;28;212083;-68
2022/05/12 09:42:28;;;;;;;10.73;1.70;;;20.10;84.90;;;;;;4965157;28;20055;-69
2022/05/12 09:44:58;;;;;;;12.02;1.70;;;20.10;78.10;;;;;;4936658;28;219819;-68
2022/05/12 09:47:27;;;;;;;9.05;1.50;;;19.90;83.90;;;;;;4975695;28;20052;-68
2022/05/12 09:50:20;;;;;;;12.00;1.55;;;19.70;81.30;;;;;;4936119;28;212368;-68
2022/05/12 09:53:01;;;;;;;10.18;1.50;;;20.20;84.90;;;;;;4970719;28;20098;-68
2022/05/12 09:55:29;;;;;;;;;;;20.90;75.40;;;;;;4935849;28;211827;-68
2022/05/12 09:57:56;;;;;;;8.85;1.55;;;20.90;71.90;;;;;;4973345;28;20811;-68
2022/05/12 10:00:32;;;;;;;10.65;1.83;;;20.70;76.60;;;;;;4935879;28;210772;-69
2022/05/12 10:09:25;;;;;;;9.63;1.58;;;21.60;67.20;;;;;;4885215;28;206719;-69
2022/05/12 10:11:57;;;;;;;8.13;1.40;;;21.60;63.60;;;;;;4942598;28;20436;-68
2022/05/12 10:14:26;;;;;;;8.40;1.52;;;21.40;65.30;;;;;;4889049;28;208131;-69
2022/05/12 10:16:56;;;;;;;11.73;1.88;;;21.80;68.50;;;;;;4934924;28;20110;-69
2022/05/12 10:19:23;;;;;;;11.40;1.83;;;22.30;67.10;;;;;;4895692;28;234944;-68
2022/05/12 10:22:01;;;;;;;9.65;1.67;;;22.40;66.10;;;;;;4953155;28;20063;-68
2022/05/12 10:24:53;;;;;;;9.65;1.65;;;21.80;64.50;;;;;;4897482;28;206497;-69
2022/05/12 10:27:19;;;;;;;12.27;2.08;;;21.50;63.40;;;;;;4929723;28;20058;-69
2022/05/12 10:30:04;;;;;;;8.35;1.55;;;21.40;64.00;;;;;;4890492;28;205825;-68
2022/05/12 10:33:10;;;;;;;8.98;1.80;;;21.40;63.00;;;;;;4924336;28;20548;-69
2022/05/12 10:35:48;;;;;;;8.48;1.52;;;22.10;64.20;;;;;;4844146;29;226599;-69
2022/05/12 10:39:01;;;;;;;9.15;1.58;;;22.30;64.20;;;;;;4905312;28;20070;-69
2022/05/12 10:41:36;;;;;;;7.32;1.42;;;22.20;59.70;;;;;;4755066;29;24112;-69
2022/05/12 10:44:05;;;;;;;9.05;1.40;;;22.40;60.00;;;;;;4767357;29;207850;-69
2022/05/12 10:46:50;;;;;;;8.90;1.42;;;22.50;61.00;;;;;;4822638;29;20049;-69
2022/05/12 10:49:41;;;;;;;10.27;1.60;;;22.70;59.60;;;;;;4754014;29;235507;-69
2022/05/12 10:52:24;;;;;;;7.15;1.60;;;23.00;57.20;;;;;;4828464;29;20061;-69
2022/05/12 10:55:15;;;;;;;7.18;1.20;;;23.10;54.60;;;;;;4757214;29;210218;-69
2022/05/12 10:58:04;;;;;;;6.93;1.30;;;23.10;52.10;;;;;;4841427;29;20053;-69
2022/05/12 11:01:12;;;;;;;11.45;1.70;;;22.70;52.80;;;;;;4777886;29;206539;-69
2022/05/12 11:03:54;;;;;;;7.70;1.10;;;23.00;54.50;;;;;;4776685;29;209684;-69
2022/05/12 11:06:27;;;;;;;8.68;1.48;;;23.20;51.80;;;;;;4788081;29;146861;-69
2022/05/12 11:08:59;;;;;;;7.32;1.48;;;22.60;54.60;;;;;;4789582;29;209970;-68
2022/05/12 11:11:33;;;;;;;8.88;1.60;;;22.30;52.60;;;;;;4803134;29;20053;-69
2022/05/12 11:14:19;;;;;;;7.82;1.30;;;22.50;54.50;;;;;;4792517;29;231672;-69
2022/05/12 11:17:11;;;;;;;8.32;1.20;;;22.80;52.40;;;;;;4865485;29;20535;-69
2022/05/12 11:19:45;;;;;;;11.27;1.52;;;22.70;50.70;;;;;;4856680;29;211632;-68
2022/05/12 11:22:25;;;;;;;8.55;1.30;;;22.60;52.50;;;;;;4932681;29;20058;-68
2022/05/12 11:25:15;;;;;;;8.95;1.50;;;22.80;51.40;;;;;;4855311;29;207602;-69
2022/05/12 11:29:41;;;;;;;7.03;1.38;;;22.90;51.10;;;;;;4928661;29;20052;-69
2022/05/12 11:30:51;;;;;;;7.43;1.30;;;23.00;50.10;;;;;;4861183;29;180121;-69
2022/05/12 11:33:28;;;;;;;6.72;1.35;;;23.20;49.70;;;;;;4917426;28;20083;-69
2022/05/12 11:35:54;;;;;;;7.63;1.45;;;22.90;50.60;;;;;;4844535;29;227826;-67
2022/05/12 11:38:43;;;;;;;6.35;1.13;;;22.80;50.30;;;;;;4910353;28;207783;-68
2022/05/12 11:41:21;;;;;;;7.88;1.42;;;22.50;50.10;;;;;;4896451;28;206601;-68
2022/05/12 11:46:37;;;;;;;8.00;1.23;;;22.20;50.70;;;;;;4918229;28;20059;-68
2022/05/12 11:49:26;;;;;;;6.88;1.08;;;22.60;50.20;;;;;;4861423;28;214394;-68
2022/05/12 11:51:58;;;;;;;8.55;1.40;;;22.90;48.30;;;;;;4909423;29;20086;-69
2022/05/12 11:54:35;;;;;;;8.55;1.20;;;23.30;49.90;;;;;;4861603;28;205423;-67
2022/05/12 11:57:04;;;;;;;6.60;1.15;;;23.50;48.80;;;;;;4953251;28;20050;-67
2022/05/12 11:59:31;;;;;;;9.30;1.15;;;23.70;47.90;;;;;;4933198;28;217865;-67
2022/05/12 12:02:29;;;;;;;8.32;1.33;;;23.60;48.20;;;;;;4984841;28;20058;-67
2022/05/12 12:04:58;;;;;;;5.85;1.20;;;23.70;47.10;;;;;;4893077;28;190414;-67
2022/05/12 12:07:30;;;;;;;6.10;1.10;;;23.70;48.00;;;;;;4942408;28;20247;-68
2022/05/12 12:10:03;;;;;;;9.20;1.40;;;23.60;48.70;;;;;;4891113;28;208212;-66
2022/05/12 12:12:42;;;;;;;8.10;1.25;;;23.90;47.50;;;;;;4938855;28;20056;-67
2022/05/12 12:15:11;;;;;;;6.60;1.20;;;24.20;46.30;;;;;;4893795;28;207136;-65
2022/05/12 12:17:40;;;;;;;6.70;1.10;;;24.40;47.70;;;;;;4939276;28;20054;-66
2022/05/12 12:20:29;;;;;;;7.18;1.17;;;24.20;45.10;;;;;;4896786;28;205719;-68
2022/05/12 12:23:29;;;;;;;7.97;1.27;;;23.40;44.80;;;;;;4939048;28;20051;-65
2022/05/12 12:26:01;;;;;;;6.15;1.20;;;22.50;46.30;;;;;;4902290;28;214151;-66
2022/05/12 12:28:46;;;;;;;6.82;1.10;;;22.50;48.20;;;;;;4901967;28;207125;-68
2022/05/12 12:31:30;;;;;;;7.97;1.30;;;22.60;47.20;;;;;;4928302;28;83367;-66
2022/05/12 12:34:02;;;;;;;4.65;0.90;;;22.20;46.60;;;;;;4892436;28;225573;-65
2022/05/12 12:36:29;;;;;;;7.25;0.93;;;21.70;46.20;;;;;;4940632;28;20051;-66
2022/05/12 12:38:55;;;;;;;7.30;1.20;;;21.40;45.90;;;;;;4888036;28;206803;-64
2022/05/12 12:41:30;;;;;;;8.65;1.10;;;21.50;47.40;;;;;;4931346;28;252690;-64
2022/05/12 12:44:00;;;;;;;9.10;1.35;;;21.80;46.80;;;;;;4924369;28;211395;-66
2022/05/12 12:46:56;;;;;;;7.60;1.20;;;21.60;46.80;;;;;;4986761;28;20437;-66
2022/05/12 12:49:30;;;;;;;6.70;1.10;;;21.10;46.30;;;;;;4901261;28;206755;-66
2022/05/12 12:52:07;;;;;;;5.25;1.20;;;20.70;47.90;;;;;;4944369;28;20059;-67
2022/05/12 12:57:46;;;;;;;5.80;1.10;;;21.30;47.60;;;;;;4957295;28;20046;-67
2022/05/12 13:00:34;;;;;;;7.63;1.60;;;22.20;47.70;;;;;;4893855;28;209099;-66
2022/05/12 13:03:09;;;;;;;7.85;1.50;;;22.20;47.90;;;;;;4956918;28;20050;-67
2022/05/12 13:05:36;;;;;;;6.88;1.20;;;22.10;47.60;;;;;;4882704;28;237560;-67
2022/05/12 13:08:08;;;;;;;6.63;1.20;;;21.50;46.00;;;;;;4952525;28;20112;-66
2022/05/12 13:10:49;;;;;;;8.07;1.45;;;21.50;46.80;;;;;;4890234;28;206369;-66
2022/05/12 13:13:16;;;;;;;;;;;22.10;46.80;;;;;;4952549;28;20051;-67
2022/05/12 13:15:45;;;;;;;7.10;1.50;;;21.70;43.20;;;;;;4889858;28;249066;-67
2022/05/12 13:18:24;;;;;;;7.50;1.37;;;21.20;46.80;;;;;;4957965;28;20085;-66
2022/05/12 13:20:52;;;;;;;7.75;1.48;;;20.90;47.80;;;;;;4894880;28;207100;-67